Friday, November 17, 2017, 4:09 PM EST
Back to Local

KLEB, Lebanon Municipal Airport

Location: Lebanon, NH, United States Lat: 43.633
Local Time: 4:09 PM EST (21:09 GMT) Lon: -72.3
Time Zone: US/Eastern Elev: 597 ft

Show me the last for .
Show Decoded

2017-11-17 15:53 METAR KLEB 172053Z VRB06KT 10SM CLR 02/M08 A2998 RMK AO2 SLP157 T00171083 53008
                 =
2017-11-17 14:53 METAR KLEB 171953Z 31008KT 10SM SCT028 02/M07 A2996 RMK AO2 SLP152 T00221067 =
2017-11-17 14:00 METAR KLEB 171900Z 34007KT 10SM SCT028 03/M06 A2995 RMK AO2 T00281061 =
2017-11-17 13:53 METAR KLEB 171853Z 32006KT 10SM OVC028 03/M06 A2995 RMK AO2 SLP148 T00281056 =
2017-11-17 12:53 METAR KLEB 171753Z 33008G23KT 10SM OVC028 02/M06 A2995 RMK AO2 SLP149 60000
                 T00171061 10017 20000 56008 =
2017-11-17 11:53 METAR KLEB 171653Z 33011G21KT 10SM OVC026 01/M06 A2995 RMK AO2 SLP150 T00061056
                 =
2017-11-17 10:53 METAR KLEB 171553Z 31007G14KT 10SM OVC024 01/M06 A2997 RMK AO2 SLP155 T00061056
                 =
2017-11-17 09:53 METAR KLEB 171453Z 34011G19KT 10SM BKN025 OVC033 00/M06 A2998 RMK AO2 SLP158
                 60000 T00001056 51023 =
2017-11-17 08:53 METAR KLEB 171353Z 34007KT 10SM OVC023 00/M05 A2997 RMK AO2 PK WND 33026/1328
                 SLP154 T00001050 =
2017-11-17 07:53 METAR KLEB 171253Z 32016G25KT 10SM OVC024 01/M05 A2994 RMK AO2 UPE1155 SLP146
                 P0000 T00061050 =
2017-11-17 06:53 METAR KLEB 171153Z COR 34012G22KT 10SM OVC021 01/M04 A2991 RMK AO2 UPB49 SLP133
                 P0000 60000 70019 T00111039 10039 20011 51039 =
2017-11-17 05:53 METAR KLEB 171053Z 33007G15KT 10SM OVC021 01/M03 A2987 RMK AO2 SLP121 T00111033
                 =
2017-11-17 04:53 METAR KLEB 170953Z AUTO 34010G14KT 10SM OVC026 02/M03 A2984 RMK AO2 SLP108
                 T00171033 =
2017-11-17 03:53 METAR KLEB 170853Z AUTO 31004KT 10SM OVC022 03/M02 A2979 RMK AO2 SLP093
                 T00281022 51023 =
2017-11-17 02:53 METAR KLEB 170753Z AUTO VRB03G16KT 10SM BKN029 OVC037 03/M02 A2977 RMK AO2
                 SLP086 T00331022 =
2017-11-17 02:14 METAR KLEB 170714Z AUTO 32007KT 10SM FEW021 BKN041 OVC050 03/M01 A2975 RMK AO2
                 T00331006 =
2017-11-17 01:53 METAR KLEB 170653Z AUTO 03004KT 10SM BKN023 BKN028 OVC038 03/00 A2975 RMK AO2
                 SLP078 T00330000 =
2017-11-17 00:53 METAR KLEB 170553Z AUTO VRB04G16KT 10SM SCT023 BKN030 OVC046 04/00 A2972 RMK AO2
                 SLP070 60004 T00390000 10050 20033 53013 =
2017-11-16 23:53 METAR KLEB 170453Z AUTO 00000KT 10SM FEW031 BKN070 OVC090 04/01 A2971 RMK AO2
                 SLP064 T00440011 400561011 =
2017-11-16 22:53 METAR KLEB 170353Z AUTO 20004KT 10SM FEW026 BKN039 OVC049 03/03 A2969 RMK AO2
                 SLP059 T00330033 =
2017-11-16 21:53 METAR KLEB 170253Z 22004KT 9SM SCT034 OVC065 04/03 A2968 RMK AO2 SLP057 60004
                 T00390033 58007 =
2017-11-16 20:53 METAR KLEB 170153Z 17004KT 8SM FEW027 OVC038 04/04 A2969 RMK AO2 RAE44 SLP061
                 P0003 T00440039 =
2017-11-16 20:39 METAR KLEB 170139Z 00000KT 5SM -RA BR SCT001 BKN027 OVC065 04/04 A2969 RMK AO2
                 P0003 T00440039 =
2017-11-16 20:00 METAR KLEB 170100Z 00000KT 5SM -RA BR OVC001 04/04 A2970 RMK AO2 P0000 T00440044
                 =
2017-11-16 19:53 METAR KLEB 170053Z 00000KT 1 1/4SM -RA BR OVC001 04/04 A2970 RMK AO2 RAB29
                 SLP064 P0001 T00440044 =
2017-11-16 19:41 METAR KLEB 170041Z 13003KT 1 1/4SM -RA BR OVC001 04/04 A2970 RMK AO2 RAB29 P0001
                 T00440039 =
2017-11-16 19:23 METAR KLEB 170023Z 18004KT 1 3/4SM BR OVC002 04/04 A2971 RMK AO2 T00440044 =
2017-11-16 19:11 METAR KLEB 170011Z 18007KT 4SM BR OVC002 04/04 A2970 RMK AO2 T00440039 =
2017-11-16 19:04 METAR KLEB 170004Z 14003KT 4SM BR OVC001 04/04 A2970 RMK AO2 T00440039 =
2017-11-16 18:53 METAR KLEB 162353Z 36003KT 3SM BR OVC002 05/04 A2971 RMK AO2 SLP064 60000
                 T00500039 10056 20039 53001 =
2017-11-16 18:00 METAR KLEB 162300Z 00000KT 4SM BR OVC003 04/04 A2969 RMK AO2 T00440039 =
2017-11-16 17:53 METAR KLEB 162253Z 00000KT 4SM BR SCT002 OVC007 04/04 A2969 RMK AO2 SLP061
                 T00440044 =
2017-11-16 17:14 METAR KLEB 162214Z 00000KT 5SM BR SCT002 BKN007 05/04 A2968 RMK AO2 T00500044 =
2017-11-16 17:00 METAR KLEB 162200Z 00000KT 5SM BR OVC004 05/04 A2969 RMK AO2 CIG 001V006
                 T00500044 =
2017-11-16 16:53 METAR KLEB 162153Z 00000KT 5SM BR SCT002 OVC007 05/04 A2969 RMK AO2 RAB20E35
                 SLP059 P0000 T00500044 =
2017-11-16 16:10 METAR KLEB 162110Z 00000KT 6SM BR SCT002 OVC007 05/04 A2970 RMK AO2 T00500044 =

Support USWX by starting your Amazon purchase here.